createdAt,value
2023-07-31T05:05:09.375Z,1.98
2023-07-31T05:15:11.887Z,1.80
2023-07-31T05:25:14.756Z,2.25
2023-07-31T05:35:17.239Z,2.63
2023-07-31T05:45:19.622Z,2.08
2023-07-31T05:55:22.411Z,1.70
2023-07-31T06:05:24.801Z,3.83
2023-07-31T06:15:27.461Z,2.40
2023-07-31T06:25:29.881Z,1.63
2023-07-31T06:35:32.299Z,1.30
2023-07-31T06:45:38.337Z,2.10
2023-07-31T06:55:40.825Z,1.55
2023-07-31T07:05:43.488Z,1.48
2023-07-31T07:15:52.876Z,1.40
2023-07-31T07:25:55.270Z,1.42
2023-07-31T07:36:01.672Z,1.40
2023-07-31T07:46:04.221Z,1.80
2023-07-31T07:56:06.657Z,1.42
2023-07-31T08:06:10.646Z,1.33
2023-07-31T08:16:13.190Z,1.90
2023-07-31T08:26:19.923Z,1.80
2023-07-31T08:36:22.301Z,1.70
2023-07-31T08:46:25.310Z,1.70
2023-07-31T08:56:29.593Z,1.60
2023-07-31T09:06:33.380Z,1.92
2023-07-31T09:16:36.379Z,1.83
2023-07-31T09:26:39.058Z,2.08
2023-07-31T09:36:46.510Z,2.00
2023-07-31T09:46:49.248Z,1.90
2023-07-31T09:56:55.899Z,2.10
2023-07-31T10:07:01.375Z,2.70
2023-07-31T10:17:06.958Z,3.10
2023-07-31T10:27:11.128Z,2.38
2023-07-31T10:37:39.086Z,3.05
2023-07-31T10:47:46.470Z,2.77
2023-07-31T10:57:49.616Z,2.83
2023-07-31T11:07:52.078Z,2.72
2023-07-31T11:17:54.446Z,2.65
2023-07-31T11:27:57.789Z,2.42
2023-07-31T11:38:00.962Z,2.85
2023-07-31T11:48:04.625Z,2.35
2023-07-31T11:58:07.736Z,2.63
2023-07-31T12:08:16.816Z,2.05
2023-07-31T12:18:21.916Z,3.25
2023-07-31T12:28:24.364Z,2.58
2023-07-31T12:38:26.864Z,2.40
2023-07-31T12:48:29.297Z,2.50
2023-07-31T12:58:32.038Z,2.45
2023-07-31T13:08:34.617Z,1.70
2023-07-31T13:18:37.003Z,2.00
2023-07-31T13:28:39.457Z,2.20
2023-07-31T13:38:41.869Z,2.40
2023-07-31T13:48:44.231Z,1.80
2023-07-31T13:58:47.049Z,2.55
2023-07-31T14:08:49.508Z,2.40
2023-07-31T14:18:52.307Z,2.35
2023-07-31T14:28:54.715Z,7.95
2023-07-31T14:38:57.058Z,4.43
2023-07-31T14:49:00.623Z,1.92
2023-07-31T14:59:02.999Z,2.58
2023-07-31T15:09:05.399Z,2.30
2023-07-31T15:19:07.780Z,2.03
2023-07-31T15:29:11.369Z,1.70
2023-07-31T15:39:13.972Z,1.70
2023-07-31T15:49:16.653Z,1.83
2023-07-31T15:59:19.098Z,2.47
2023-07-31T16:09:21.463Z,1.85
2023-07-31T16:19:23.909Z,2.13
2023-07-31T16:29:26.350Z,2.80
2023-07-31T16:39:28.673Z,1.80
2023-07-31T16:49:31.169Z,1.20
2023-07-31T16:59:33.554Z,1.50
2023-07-31T17:09:35.890Z,1.35
2023-07-31T17:19:38.304Z,2.10
2023-07-31T17:29:40.803Z,1.58
2023-07-31T17:39:43.359Z,1.77
2023-07-31T17:49:46.912Z,1.50
2023-07-31T17:59:51.725Z,1.85
2023-07-31T18:09:54.481Z,1.23
2023-07-31T18:19:57.142Z,1.35
2023-07-31T18:29:59.512Z,1.45
2023-07-31T18:40:02.037Z,4.93
2023-07-31T18:50:05.623Z,7.78
2023-07-31T19:00:08.361Z,2.78
2023-07-31T19:10:16.336Z,1.98
2023-07-31T19:20:19.300Z,2.05
2023-07-31T19:30:23.012Z,2.28
2023-07-31T19:40:27.205Z,1.63
2023-07-31T19:50:29.562Z,3.30
2023-07-31T20:00:32.311Z,2.40
2023-07-31T20:20:10.657Z,2.60
2023-07-31T20:30:13.613Z,2.60
2023-07-31T20:40:16.002Z,1.60
2023-07-31T20:50:18.533Z,2.08
2023-07-31T21:00:23.184Z,2.53
2023-07-31T21:10:25.623Z,2.42
2023-07-31T21:20:28.715Z,2.53
2023-07-31T21:30:31.501Z,2.60
2023-07-31T21:40:33.917Z,2.33
2023-07-31T21:50:36.260Z,20.60
2023-07-31T22:00:38.821Z,23.42
2023-07-31T22:10:41.263Z,11.63
2023-07-31T22:20:49.445Z,11.18
2023-07-31T22:30:51.873Z,13.40
2023-07-31T22:40:54.317Z,3.55
2023-07-31T22:50:56.847Z,2.50
2023-07-31T23:01:07.035Z,3.03
2023-07-31T23:11:09.366Z,3.00
2023-07-31T23:31:14.691Z,2.92
2023-07-31T23:41:19.772Z,3.05
2023-07-31T23:51:22.452Z,3.13
